sensor_id;sensor_type;location;lat;lon;timestamp;P1;durP1;ratioP1;P2;durP2;ratioP2
10410;SDS011;5251;52.112;8.606;2022-07-05T00:02:20;1.55;;;1.45;;
10410;SDS011;5251;52.112;8.606;2022-07-05T00:04:45;3.08;;;1.30;;
10410;SDS011;5251;52.112;8.606;2022-07-05T00:07:11;1.52;;;1.35;;
10410;SDS011;5251;52.112;8.606;2022-07-05T00:09:47;2.15;;;1.15;;
10410;SDS011;5251;52.112;8.606;2022-07-05T00:12:15;1.75;;;1.40;;
10410;SDS011;5251;52.112;8.606;2022-07-05T00:14:42;2.90;;;1.20;;
10410;SDS011;5251;52.112;8.606;2022-07-05T00:17:08;1.42;;;1.00;;
10410;SDS011;5251;52.112;8.606;2022-07-05T00:19:34;2.38;;;1.27;;
10410;SDS011;5251;52.112;8.606;2022-07-05T00:22:00;1.25;;;1.10;;
10410;SDS011;5251;52.112;8.606;2022-07-05T00:24:26;1.17;;;1.00;;
10410;SDS011;5251;52.112;8.606;2022-07-05T00:26:51;1.40;;;1.17;;
10410;SDS011;5251;52.112;8.606;2022-07-05T00:29:17;1.45;;;1.35;;
10410;SDS011;5251;52.112;8.606;2022-07-05T00:31:43;1.80;;;1.20;;
10410;SDS011;5251;52.112;8.606;2022-07-05T00:34:09;2.92;;;1.35;;
10410;SDS011;5251;52.112;8.606;2022-07-05T00:36:34;1.20;;;1.10;;
10410;SDS011;5251;52.112;8.606;2022-07-05T00:39:00;1.30;;;1.13;;
10410;SDS011;5251;52.112;8.606;2022-07-05T00:41:26;1.88;;;1.50;;
10410;SDS011;5251;52.112;8.606;2022-07-05T00:43:52;2.60;;;1.27;;
10410;SDS011;5251;52.112;8.606;2022-07-05T00:46:22;1.38;;;1.27;;
10410;SDS011;5251;52.112;8.606;2022-07-05T00:48:48;1.75;;;1.20;;
10410;SDS011;5251;52.112;8.606;2022-07-05T00:51:14;1.50;;;1.30;;
10410;SDS011;5251;52.112;8.606;2022-07-05T00:53:40;1.38;;;1.27;;
10410;SDS011;5251;52.112;8.606;2022-07-05T00:56:07;2.80;;;1.30;;
10410;SDS011;5251;52.112;8.606;2022-07-05T00:58:33;2.10;;;1.48;;
10410;SDS011;5251;52.112;8.606;2022-07-05T01:01:01;2.90;;;1.70;;
10410;SDS011;5251;52.112;8.606;2022-07-05T01:03:28;1.83;;;1.20;;
10410;SDS011;5251;52.112;8.606;2022-07-05T01:05:54;1.75;;;1.50;;
10410;SDS011;5251;52.112;8.606;2022-07-05T01:08:21;2.58;;;1.58;;
10410;SDS011;5251;52.112;8.606;2022-07-05T01:10:48;2.30;;;1.50;;
10410;SDS011;5251;52.112;8.606;2022-07-05T01:13:15;3.50;;;1.83;;
10410;SDS011;5251;52.112;8.606;2022-07-05T01:15:41;2.58;;;1.33;;
10410;SDS011;5251;52.112;8.606;2022-07-05T01:18:07;1.73;;;1.20;;
10410;SDS011;5251;52.112;8.606;2022-07-05T01:20:35;3.97;;;1.52;;
10410;SDS011;5251;52.112;8.606;2022-07-05T01:23:01;2.35;;;1.45;;
10410;SDS011;5251;52.112;8.606;2022-07-05T01:25:29;1.95;;;1.40;;
10410;SDS011;5251;52.112;8.606;2022-07-05T01:27:56;1.77;;;1.33;;
10410;SDS011;5251;52.112;8.606;2022-07-05T01:30:23;1.50;;;1.40;;
10410;SDS011;5251;52.112;8.606;2022-07-05T01:32:49;1.33;;;1.23;;
10410;SDS011;5251;52.112;8.606;2022-07-05T01:35:15;1.40;;;1.30;;
10410;SDS011;5251;52.112;8.606;2022-07-05T01:37:45;1.95;;;1.50;;
10410;SDS011;5251;52.112;8.606;2022-07-05T01:40:12;1.30;;;1.08;;
10410;SDS011;5251;52.112;8.606;2022-07-05T01:42:38;1.48;;;1.38;;
10410;SDS011;5251;52.112;8.606;2022-07-05T01:45:05;1.67;;;1.40;;
10410;SDS011;5251;52.112;8.606;2022-07-05T01:47:32;1.30;;;1.20;;
10410;SDS011;5251;52.112;8.606;2022-07-05T01:50:01;1.48;;;1.35;;
10410;SDS011;5251;52.112;8.606;2022-07-05T01:52:29;1.70;;;1.40;;
10410;SDS011;5251;52.112;8.606;2022-07-05T01:54:57;2.08;;;1.25;;
10410;SDS011;5251;52.112;8.606;2022-07-05T01:57:23;3.40;;;1.40;;
10410;SDS011;5251;52.112;8.606;2022-07-05T01:59:49;1.40;;;1.25;;
10410;SDS011;5251;52.112;8.606;2022-07-05T02:02:14;2.38;;;1.45;;
10410;SDS011;5251;52.112;8.606;2022-07-05T02:04:40;1.48;;;1.25;;
10410;SDS011;5251;52.112;8.606;2022-07-05T02:07:07;1.17;;;1.08;;
10410;SDS011;5251;52.112;8.606;2022-07-05T02:09:33;1.52;;;1.27;;
10410;SDS011;5251;52.112;8.606;2022-07-05T02:12:00;1.83;;;1.10;;
10410;SDS011;5251;52.112;8.606;2022-07-05T02:14:27;2.63;;;1.48;;
10410;SDS011;5251;52.112;8.606;2022-07-05T02:16:53;1.20;;;1.10;;
10410;SDS011;5251;52.112;8.606;2022-07-05T02:19:18;1.52;;;1.42;;
10410;SDS011;5251;52.112;8.606;2022-07-05T02:21:44;3.45;;;1.80;;
10410;SDS011;5251;52.112;8.606;2022-07-05T02:24:10;1.40;;;1.30;;
10410;SDS011;5251;52.112;8.606;2022-07-05T02:26:35;2.33;;;1.30;;
10410;SDS011;5251;52.112;8.606;2022-07-05T02:29:02;2.10;;;1.50;;
10410;SDS011;5251;52.112;8.606;2022-07-05T02:31:28;2.22;;;1.40;;
10410;SDS011;5251;52.112;8.606;2022-07-05T02:33:54;1.30;;;1.20;;
10410;SDS011;5251;52.112;8.606;2022-07-05T02:36:19;1.73;;;1.40;;
10410;SDS011;5251;52.112;8.606;2022-07-05T02:38:45;1.30;;;1.20;;
10410;SDS011;5251;52.112;8.606;2022-07-05T02:41:11;1.40;;;1.30;;
10410;SDS011;5251;52.112;8.606;2022-07-05T02:43:38;1.30;;;1.20;;
10410;SDS011;5251;52.112;8.606;2022-07-05T02:46:04;1.35;;;1.25;;
10410;SDS011;5251;52.112;8.606;2022-07-05T02:48:31;2.17;;;1.30;;
10410;SDS011;5251;52.112;8.606;2022-07-05T02:50:58;1.70;;;1.23;;
10410;SDS011;5251;52.112;8.606;2022-07-05T02:53:23;1.38;;;1.27;;
10410;SDS011;5251;52.112;8.606;2022-07-05T02:55:49;1.85;;;1.25;;
10410;SDS011;5251;52.112;8.606;2022-07-05T02:58:15;1.83;;;1.40;;
10410;SDS011;5251;52.112;8.606;2022-07-05T03:00:42;2.67;;;1.40;;
10410;SDS011;5251;52.112;8.606;2022-07-05T03:03:08;2.55;;;1.42;;
10410;SDS011;5251;52.112;8.606;2022-07-05T03:05:34;2.38;;;1.30;;
10410;SDS011;5251;52.112;8.606;2022-07-05T03:08:00;2.67;;;1.50;;
10410;SDS011;5251;52.112;8.606;2022-07-05T03:10:25;2.63;;;1.60;;
10410;SDS011;5251;52.112;8.606;2022-07-05T03:12:51;1.30;;;1.20;;
10410;SDS011;5251;52.112;8.606;2022-07-05T03:15:17;1.80;;;1.17;;
10410;SDS011;5251;52.112;8.606;2022-07-05T03:17:43;1.73;;;1.20;;
10410;SDS011;5251;52.112;8.606;2022-07-05T03:20:08;6.95;;;1.60;;
10410;SDS011;5251;52.112;8.606;2022-07-05T03:22:34;2.30;;;1.30;;
10410;SDS011;5251;52.112;8.606;2022-07-05T03:25:00;1.52;;;1.42;;
10410;SDS011;5251;52.112;8.606;2022-07-05T03:27:27;2.30;;;1.40;;
10410;SDS011;5251;52.112;8.606;2022-07-05T03:29:53;1.55;;;1.30;;
10410;SDS011;5251;52.112;8.606;2022-07-05T03:32:19;1.58;;;1.40;;
10410;SDS011;5251;52.112;8.606;2022-07-05T03:34:44;1.85;;;1.40;;
10410;SDS011;5251;52.112;8.606;2022-07-05T03:37:10;2.83;;;1.40;;
10410;SDS011;5251;52.112;8.606;2022-07-05T03:39:35;1.30;;;1.20;;
10410;SDS011;5251;52.112;8.606;2022-07-05T03:42:01;1.30;;;1.20;;
10410;SDS011;5251;52.112;8.606;2022-07-05T03:44:27;1.40;;;1.30;;
10410;SDS011;5251;52.112;8.606;2022-07-05T03:46:52;1.40;;;1.20;;
10410;SDS011;5251;52.112;8.606;2022-07-05T03:49:18;2.00;;;1.40;;
10410;SDS011;5251;52.112;8.606;2022-07-05T03:51:43;1.83;;;1.65;;
10410;SDS011;5251;52.112;8.606;2022-07-05T03:54:09;1.33;;;1.23;;
10410;SDS011;5251;52.112;8.606;2022-07-05T03:56:34;3.50;;;1.40;;
10410;SDS011;5251;52.112;8.606;2022-07-05T03:59:00;2.50;;;1.40;;
10410;SDS011;5251;52.112;8.606;2022-07-05T04:01:26;1.92;;;1.63;;
10410;SDS011;5251;52.112;8.606;2022-07-05T04:03:51;2.25;;;1.73;;
10410;SDS011;5251;52.112;8.606;2022-07-05T04:06:17;1.40;;;1.30;;
10410;SDS011;5251;52.112;8.606;2022-07-05T04:08:42;2.60;;;1.55;;
10410;SDS011;5251;52.112;8.606;2022-07-05T04:11:08;2.00;;;1.25;;
10410;SDS011;5251;52.112;8.606;2022-07-05T04:13:35;2.92;;;1.50;;
10410;SDS011;5251;52.112;8.606;2022-07-05T04:16:01;2.97;;;1.40;;
10410;SDS011;5251;52.112;8.606;2022-07-05T04:18:26;1.50;;;1.40;;
10410;SDS011;5251;52.112;8.606;2022-07-05T04:20:52;2.63;;;1.65;;
10410;SDS011;5251;52.112;8.606;2022-07-05T04:23:17;1.50;;;1.40;;
10410;SDS011;5251;52.112;8.606;2022-07-05T04:25:43;3.33;;;1.52;;
10410;SDS011;5251;52.112;8.606;2022-07-05T04:28:09;2.00;;;1.65;;
10410;SDS011;5251;52.112;8.606;2022-07-05T04:30:34;1.77;;;1.55;;
10410;SDS011;5251;52.112;8.606;2022-07-05T04:33:00;3.30;;;1.50;;
10410;SDS011;5251;52.112;8.606;2022-07-05T04:35:26;2.83;;;1.60;;
10410;SDS011;5251;52.112;8.606;2022-07-05T04:37:51;2.95;;;1.50;;
10410;SDS011;5251;52.112;8.606;2022-07-05T04:40:17;2.33;;;1.70;;
10410;SDS011;5251;52.112;8.606;2022-07-05T04:42:42;1.98;;;1.58;;
10410;SDS011;5251;52.112;8.606;2022-07-05T04:45:08;1.67;;;1.45;;
10410;SDS011;5251;52.112;8.606;2022-07-05T04:47:34;1.58;;;1.48;;
10410;SDS011;5251;52.112;8.606;2022-07-05T04:50:00;2.55;;;1.17;;
10410;SDS011;5251;52.112;8.606;2022-07-05T04:52:26;1.30;;;1.20;;
10410;SDS011;5251;52.112;8.606;2022-07-05T04:54:52;2.28;;;1.50;;
10410;SDS011;5251;52.112;8.606;2022-07-05T04:57:19;2.42;;;1.60;;
10410;SDS011;5251;52.112;8.606;2022-07-05T04:59:44;1.60;;;1.50;;
10410;SDS011;5251;52.112;8.606;2022-07-05T05:02:10;3.05;;;1.48;;
10410;SDS011;5251;52.112;8.606;2022-07-05T05:04:36;2.42;;;1.55;;
10410;SDS011;5251;52.112;8.606;2022-07-05T05:07:01;1.60;;;1.50;;
10410;SDS011;5251;52.112;8.606;2022-07-05T05:09:27;3.28;;;1.83;;
10410;SDS011;5251;52.112;8.606;2022-07-05T05:11:53;1.65;;;1.50;;
10410;SDS011;5251;52.112;8.606;2022-07-05T05:14:18;1.70;;;1.60;;
10410;SDS011;5251;52.112;8.606;2022-07-05T05:16:44;1.90;;;1.60;;
10410;SDS011;5251;52.112;8.606;2022-07-05T05:19:09;1.90;;;1.60;;
10410;SDS011;5251;52.112;8.606;2022-07-05T05:21:35;3.00;;;1.50;;
10410;SDS011;5251;52.112;8.606;2022-07-05T05:24:01;2.00;;;1.45;;
10410;SDS011;5251;52.112;8.606;2022-07-05T05:26:26;2.13;;;1.42;;
10410;SDS011;5251;52.112;8.606;2022-07-05T05:28:52;2.28;;;1.52;;
10410;SDS011;5251;52.112;8.606;2022-07-05T05:31:18;2.03;;;1.60;;
10410;SDS011;5251;52.112;8.606;2022-07-05T05:33:44;3.45;;;1.50;;
10410;SDS011;5251;52.112;8.606;2022-07-05T05:36:10;2.00;;;1.40;;
10410;SDS011;5251;52.112;8.606;2022-07-05T05:38:36;1.48;;;1.38;;
10410;SDS011;5251;52.112;8.606;2022-07-05T05:41:02;1.70;;;1.58;;
10410;SDS011;5251;52.112;8.606;2022-07-05T05:43:28;1.90;;;1.50;;
10410;SDS011;5251;52.112;8.606;2022-07-05T05:45:53;2.50;;;1.60;;
10410;SDS011;5251;52.112;8.606;2022-07-05T05:48:19;1.73;;;1.45;;
10410;SDS011;5251;52.112;8.606;2022-07-05T05:50:45;3.97;;;1.52;;
10410;SDS011;5251;52.112;8.606;2022-07-05T05:53:11;1.50;;;1.40;;
10410;SDS011;5251;52.112;8.606;2022-07-05T05:55:37;2.63;;;1.50;;
10410;SDS011;5251;52.112;8.606;2022-07-05T05:58:10;2.22;;;1.40;;
10410;SDS011;5251;52.112;8.606;2022-07-05T06:00:37;2.25;;;1.30;;
10410;SDS011;5251;52.112;8.606;2022-07-05T06:03:03;2.58;;;1.45;;
10410;SDS011;5251;52.112;8.606;2022-07-05T06:05:29;1.92;;;1.30;;
10410;SDS011;5251;52.112;8.606;2022-07-05T06:07:55;3.03;;;1.40;;
10410;SDS011;5251;52.112;8.606;2022-07-05T06:10:22;2.03;;;1.30;;
10410;SDS011;5251;52.112;8.606;2022-07-05T06:12:50;1.75;;;1.33;;
10410;SDS011;5251;52.112;8.606;2022-07-05T06:15:17;3.80;;;1.30;;
10410;SDS011;5251;52.112;8.606;2022-07-05T06:17:43;2.97;;;1.20;;
10410;SDS011;5251;52.112;8.606;2022-07-05T06:20:09;3.22;;;1.42;;
10410;SDS011;5251;52.112;8.606;2022-07-05T06:22:36;1.52;;;1.40;;
10410;SDS011;5251;52.112;8.606;2022-07-05T06:25:03;2.60;;;1.23;;
10410;SDS011;5251;52.112;8.606;2022-07-05T06:27:29;1.15;;;1.05;;
10410;SDS011;5251;52.112;8.606;2022-07-05T06:29:54;1.55;;;1.27;;
10410;SDS011;5251;52.112;8.606;2022-07-05T06:32:20;2.05;;;1.20;;
10410;SDS011;5251;52.112;8.606;2022-07-05T06:34:46;1.20;;;1.10;;
10410;SDS011;5251;52.112;8.606;2022-07-05T06:37:12;1.23;;;1.05;;
10410;SDS011;5251;52.112;8.606;2022-07-05T06:39:38;2.17;;;1.17;;
10410;SDS011;5251;52.112;8.606;2022-07-05T06:42:03;1.25;;;1.15;;
10410;SDS011;5251;52.112;8.606;2022-07-05T06:44:29;1.85;;;1.33;;
10410;SDS011;5251;52.112;8.606;2022-07-05T06:46:55;1.60;;;1.15;;
10410;SDS011;5251;52.112;8.606;2022-07-05T06:49:20;1.30;;;1.13;;
10410;SDS011;5251;52.112;8.606;2022-07-05T06:51:46;1.10;;;0.98;;
10410;SDS011;5251;52.112;8.606;2022-07-05T06:54:11;0.90;;;0.90;;
10410;SDS011;5251;52.112;8.606;2022-07-05T06:56:37;1.60;;;1.10;;
10410;SDS011;5251;52.112;8.606;2022-07-05T06:59:02;1.40;;;0.90;;
10410;SDS011;5251;52.112;8.606;2022-07-05T07:01:28;1.35;;;1.00;;
10410;SDS011;5251;52.112;8.606;2022-07-05T07:03:53;1.40;;;1.10;;
10410;SDS011;5251;52.112;8.606;2022-07-05T07:06:19;1.48;;;1.25;;
10410;SDS011;5251;52.112;8.606;2022-07-05T07:08:46;2.08;;;1.10;;
10410;SDS011;5251;52.112;8.606;2022-07-05T07:11:30;1.67;;;1.10;;
10410;SDS011;5251;52.112;8.606;2022-07-05T07:13:56;1.30;;;1.20;;
10410;SDS011;5251;52.112;8.606;2022-07-05T07:16:22;1.83;;;1.13;;
10410;SDS011;5251;52.112;8.606;2022-07-05T07:18:47;1.88;;;0.93;;
10410;SDS011;5251;52.112;8.606;2022-07-05T07:21:13;0.90;;;0.77;;
10410;SDS011;5251;52.112;8.606;2022-07-05T07:23:39;1.17;;;1.10;;
10410;SDS011;5251;52.112;8.606;2022-07-05T07:26:04;1.67;;;1.00;;
10410;SDS011;5251;52.112;8.606;2022-07-05T07:28:30;1.98;;;0.95;;
10410;SDS011;5251;52.112;8.606;2022-07-05T07:30:55;1.65;;;1.10;;
10410;SDS011;5251;52.112;8.606;2022-07-05T07:33:21;3.70;;;1.35;;
10410;SDS011;5251;52.112;8.606;2022-07-05T07:35:47;0.88;;;0.85;;
10410;SDS011;5251;52.112;8.606;2022-07-05T07:38:12;0.90;;;0.80;;
10410;SDS011;5251;52.112;8.606;2022-07-05T07:40:38;1.52;;;0.90;;
10410;SDS011;5251;52.112;8.606;2022-07-05T07:43:03;1.98;;;0.88;;
10410;SDS011;5251;52.112;8.606;2022-07-05T07:45:29;1.05;;;0.95;;
10410;SDS011;5251;52.112;8.606;2022-07-05T07:47:56;0.90;;;0.70;;
10410;SDS011;5251;52.112;8.606;2022-07-05T07:50:21;0.98;;;0.88;;
10410;SDS011;5251;52.112;8.606;2022-07-05T07:52:47;0.80;;;0.70;;
10410;SDS011;5251;52.112;8.606;2022-07-05T07:55:13;1.50;;;0.95;;
10410;SDS011;5251;52.112;8.606;2022-07-05T07:57:39;0.90;;;0.90;;
10410;SDS011;5251;52.112;8.606;2022-07-05T08:00:05;1.20;;;0.75;;
10410;SDS011;5251;52.112;8.606;2022-07-05T08:02:31;0.75;;;0.75;;
10410;SDS011;5251;52.112;8.606;2022-07-05T08:04:57;1.33;;;1.00;;
10410;SDS011;5251;52.112;8.606;2022-07-05T08:07:23;0.80;;;0.80;;
10410;SDS011;5251;52.112;8.606;2022-07-05T08:09:49;2.55;;;0.70;;
10410;SDS011;5251;52.112;8.606;2022-07-05T08:12:15;1.27;;;0.95;;
10410;SDS011;5251;52.112;8.606;2022-07-05T08:14:41;2.50;;;0.90;;
10410;SDS011;5251;52.112;8.606;2022-07-05T08:17:07;0.88;;;0.88;;
10410;SDS011;5251;52.112;8.606;2022-07-05T08:19:33;1.20;;;0.90;;
10410;SDS011;5251;52.112;8.606;2022-07-05T08:22:18;1.02;;;0.93;;
10410;SDS011;5251;52.112;8.606;2022-07-05T08:24:44;0.90;;;0.90;;
10410;SDS011;5251;52.112;8.606;2022-07-05T08:27:10;2.15;;;0.70;;
10410;SDS011;5251;52.112;8.606;2022-07-05T08:29:36;0.98;;;0.90;;
10410;SDS011;5251;52.112;8.606;2022-07-05T08:32:02;2.30;;;0.93;;
10410;SDS011;5251;52.112;8.606;2022-07-05T08:34:28;0.60;;;0.60;;
10410;SDS011;5251;52.112;8.606;2022-07-05T08:36:53;1.67;;;0.95;;
10410;SDS011;5251;52.112;8.606;2022-07-05T08:39:19;0.93;;;0.70;;
10410;SDS011;5251;52.112;8.606;2022-07-05T08:41:49;0.60;;;0.60;;
10410;SDS011;5251;52.112;8.606;2022-07-05T08:44:17;0.65;;;0.65;;
10410;SDS011;5251;52.112;8.606;2022-07-05T08:46:44;1.05;;;0.77;;
10410;SDS011;5251;52.112;8.606;2022-07-05T08:49:11;0.80;;;0.80;;
10410;SDS011;5251;52.112;8.606;2022-07-05T08:51:39;0.85;;;0.80;;
10410;SDS011;5251;52.112;8.606;2022-07-05T08:54:07;0.75;;;0.73;;
10410;SDS011;5251;52.112;8.606;2022-07-05T08:56:34;1.50;;;0.70;;
10410;SDS011;5251;52.112;8.606;2022-07-05T08:59:01;1.00;;;1.00;;
10410;SDS011;5251;52.112;8.606;2022-07-05T09:01:28;1.88;;;0.93;;
10410;SDS011;5251;52.112;8.606;2022-07-05T09:03:56;1.27;;;0.70;;
10410;SDS011;5251;52.112;8.606;2022-07-05T09:06:25;2.13;;;1.00;;
10410;SDS011;5251;52.112;8.606;2022-07-05T09:08:54;0.80;;;0.80;;
10410;SDS011;5251;52.112;8.606;2022-07-05T09:11:24;0.57;;;0.57;;
10410;SDS011;5251;52.112;8.606;2022-07-05T09:13:54;1.10;;;0.80;;
10410;SDS011;5251;52.112;8.606;2022-07-05T09:16:20;0.80;;;0.80;;
10410;SDS011;5251;52.112;8.606;2022-07-05T09:18:46;0.98;;;0.82;;
10410;SDS011;5251;52.112;8.606;2022-07-05T09:21:22;0.77;;;0.77;;
10410;SDS011;5251;52.112;8.606;2022-07-05T09:28:59;0.90;;;0.80;;
10410;SDS011;5251;52.112;8.606;2022-07-05T09:31:25;0.70;;;0.70;;
10410;SDS011;5251;52.112;8.606;2022-07-05T09:33:52;1.60;;;1.08;;
10410;SDS011;5251;52.112;8.606;2022-07-05T09:36:17;0.73;;;0.73;;
10410;SDS011;5251;52.112;8.606;2022-07-05T09:38:44;1.00;;;0.98;;
10410;SDS011;5251;52.112;8.606;2022-07-05T09:41:14;1.05;;;0.75;;
10410;SDS011;5251;52.112;8.606;2022-07-05T09:43:40;1.60;;;0.70;;
10410;SDS011;5251;52.112;8.606;2022-07-05T09:46:06;1.92;;;0.98;;
10410;SDS011;5251;52.112;8.606;2022-07-05T09:48:32;1.42;;;0.73;;
10410;SDS011;5251;52.112;8.606;2022-07-05T09:51:09;1.30;;;0.80;;
10410;SDS011;5251;52.112;8.606;2022-07-05T09:56:13;0.77;;;0.73;;
10410;SDS011;5251;52.112;8.606;2022-07-05T09:58:39;0.68;;;0.68;;
10410;SDS011;5251;52.112;8.606;2022-07-05T10:06:22;0.90;;;0.88;;
10410;SDS011;5251;52.112;8.606;2022-07-05T10:08:50;1.33;;;0.73;;
10410;SDS011;5251;52.112;8.606;2022-07-05T10:11:17;1.00;;;0.80;;
10410;SDS011;5251;52.112;8.606;2022-07-05T10:13:49;1.10;;;0.90;;
10410;SDS011;5251;52.112;8.606;2022-07-05T10:16:16;1.90;;;0.80;;
10410;SDS011;5251;52.112;8.606;2022-07-05T10:18:44;2.30;;;0.90;;
10410;SDS011;5251;52.112;8.606;2022-07-05T10:21:16;1.35;;;0.80;;
10410;SDS011;5251;52.112;8.606;2022-07-05T10:23:46;0.90;;;0.80;;
10410;SDS011;5251;52.112;8.606;2022-07-05T10:26:13;0.88;;;0.88;;
10410;SDS011;5251;52.112;8.606;2022-07-05T10:28:40;1.20;;;0.98;;
10410;SDS011;5251;52.112;8.606;2022-07-05T10:31:10;1.23;;;0.80;;
10410;SDS011;5251;52.112;8.606;2022-07-05T10:33:37;1.10;;;1.00;;
10410;SDS011;5251;52.112;8.606;2022-07-05T10:36:04;2.72;;;0.80;;
10410;SDS011;5251;52.112;8.606;2022-07-05T10:38:30;0.98;;;0.70;;
10410;SDS011;5251;52.112;8.606;2022-07-05T10:41:01;0.75;;;0.73;;
10410;SDS011;5251;52.112;8.606;2022-07-05T10:43:29;1.80;;;1.02;;
10410;SDS011;5251;52.112;8.606;2022-07-05T10:45:55;2.92;;;1.27;;
10410;SDS011;5251;52.112;8.606;2022-07-05T10:48:21;1.45;;;1.10;;
10410;SDS011;5251;52.112;8.606;2022-07-05T10:50:52;1.17;;;0.98;;
10410;SDS011;5251;52.112;8.606;2022-07-05T10:58:36;1.70;;;1.08;;
10410;SDS011;5251;52.112;8.606;2022-07-05T11:03:48;1.48;;;0.95;;
10410;SDS011;5251;52.112;8.606;2022-07-05T11:06:21;1.20;;;0.90;;
10410;SDS011;5251;52.112;8.606;2022-07-05T11:11:33;1.75;;;0.90;;
10410;SDS011;5251;52.112;8.606;2022-07-05T11:14:01;0.75;;;0.75;;
10410;SDS011;5251;52.112;8.606;2022-07-05T11:16:29;1.85;;;0.90;;
10410;SDS011;5251;52.112;8.606;2022-07-05T11:21:33;0.80;;;0.80;;
10410;SDS011;5251;52.112;8.606;2022-07-05T11:24:17;0.93;;;0.70;;
10410;SDS011;5251;52.112;8.606;2022-07-05T11:26:48;0.90;;;0.80;;
10410;SDS011;5251;52.112;8.606;2022-07-05T11:32:05;1.55;;;0.88;;
10410;SDS011;5251;52.112;8.606;2022-07-05T11:34:35;1.15;;;0.90;;
10410;SDS011;5251;52.112;8.606;2022-07-05T11:37:24;0.73;;;0.73;;
10410;SDS011;5251;52.112;8.606;2022-07-05T11:42:56;0.70;;;0.70;;
10410;SDS011;5251;52.112;8.606;2022-07-05T11:45:21;1.48;;;0.88;;
10410;SDS011;5251;52.112;8.606;2022-07-05T11:47:47;0.63;;;0.63;;
10410;SDS011;5251;52.112;8.606;2022-07-05T11:50:13;1.90;;;1.02;;
10410;SDS011;5251;52.112;8.606;2022-07-05T11:52:39;1.60;;;0.95;;
10410;SDS011;5251;52.112;8.606;2022-07-05T11:55:07;2.70;;;0.90;;
10410;SDS011;5251;52.112;8.606;2022-07-05T11:57:36;1.05;;;0.98;;
10410;SDS011;5251;52.112;8.606;2022-07-05T12:00:03;1.67;;;0.85;;
10410;SDS011;5251;52.112;8.606;2022-07-05T12:02:29;1.00;;;0.90;;
10410;SDS011;5251;52.112;8.606;2022-07-05T12:04:56;0.70;;;0.70;;
10410;SDS011;5251;52.112;8.606;2022-07-05T12:07:33;2.20;;;0.65;;
10410;SDS011;5251;52.112;8.606;2022-07-05T12:09:59;1.35;;;0.90;;
10410;SDS011;5251;52.112;8.606;2022-07-05T12:12:44;1.88;;;0.90;;
10410;SDS011;5251;52.112;8.606;2022-07-05T12:15:13;2.10;;;1.05;;
10410;SDS011;5251;52.112;8.606;2022-07-05T12:17:44;2.40;;;0.70;;
10410;SDS011;5251;52.112;8.606;2022-07-05T12:20:12;1.67;;;0.70;;
10410;SDS011;5251;52.112;8.606;2022-07-05T12:22:39;0.90;;;0.70;;
10410;SDS011;5251;52.112;8.606;2022-07-05T12:25:06;1.15;;;0.70;;
10410;SDS011;5251;52.112;8.606;2022-07-05T12:27:36;1.00;;;0.80;;
10410;SDS011;5251;52.112;8.606;2022-07-05T12:30:04;1.00;;;0.80;;
10410;SDS011;5251;52.112;8.606;2022-07-05T12:32:31;0.80;;;0.80;;
10410;SDS011;5251;52.112;8.606;2022-07-05T12:34:58;2.22;;;1.00;;
10410;SDS011;5251;52.112;8.606;2022-07-05T12:37:24;0.90;;;0.80;;
10410;SDS011;5251;52.112;8.606;2022-07-05T12:40:05;0.80;;;0.80;;
10410;SDS011;5251;52.112;8.606;2022-07-05T12:42:32;1.30;;;0.70;;
10410;SDS011;5251;52.112;8.606;2022-07-05T12:45:12;1.05;;;0.90;;
10410;SDS011;5251;52.112;8.606;2022-07-05T12:47:51;1.85;;;0.90;;
10410;SDS011;5251;52.112;8.606;2022-07-05T12:50:19;0.80;;;0.80;;
10410;SDS011;5251;52.112;8.606;2022-07-05T12:52:59;1.52;;;0.98;;
10410;SDS011;5251;52.112;8.606;2022-07-05T12:56:02;1.35;;;0.90;;
10410;SDS011;5251;52.112;8.606;2022-07-05T12:58:47;1.75;;;0.70;;
10410;SDS011;5251;52.112;8.606;2022-07-05T13:01:19;2.25;;;0.85;;
10410;SDS011;5251;52.112;8.606;2022-07-05T13:09:05;0.93;;;0.80;;
10410;SDS011;5251;52.112;8.606;2022-07-05T13:11:30;0.80;;;0.80;;
10410;SDS011;5251;52.112;8.606;2022-07-05T13:13:57;0.70;;;0.70;;
10410;SDS011;5251;52.112;8.606;2022-07-05T13:16:22;1.83;;;0.98;;
10410;SDS011;5251;52.112;8.606;2022-07-05T13:18:48;1.05;;;0.90;;
10410;SDS011;5251;52.112;8.606;2022-07-05T13:21:13;2.03;;;0.82;;
10410;SDS011;5251;52.112;8.606;2022-07-05T13:23:39;0.80;;;0.80;;
10410;SDS011;5251;52.112;8.606;2022-07-05T13:26:04;1.00;;;0.90;;
10410;SDS011;5251;52.112;8.606;2022-07-05T13:28:31;1.30;;;0.90;;
10410;SDS011;5251;52.112;8.606;2022-07-05T13:30:57;1.50;;;0.82;;
10410;SDS011;5251;52.112;8.606;2022-07-05T13:33:22;0.95;;;0.85;;
10410;SDS011;5251;52.112;8.606;2022-07-05T13:35:48;1.17;;;0.90;;
10410;SDS011;5251;52.112;8.606;2022-07-05T13:38:14;0.80;;;0.80;;
10410;SDS011;5251;52.112;8.606;2022-07-05T13:40:39;2.08;;;0.80;;
10410;SDS011;5251;52.112;8.606;2022-07-05T13:43:05;0.88;;;0.70;;
10410;SDS011;5251;52.112;8.606;2022-07-05T13:45:31;0.80;;;0.80;;
10410;SDS011;5251;52.112;8.606;2022-07-05T13:47:57;1.55;;;0.90;;
10410;SDS011;5251;52.112;8.606;2022-07-05T13:50:22;0.80;;;0.80;;
10410;SDS011;5251;52.112;8.606;2022-07-05T13:52:57;2.15;;;1.00;;
10410;SDS011;5251;52.112;8.606;2022-07-05T13:55:23;1.60;;;0.90;;
10410;SDS011;5251;52.112;8.606;2022-07-05T13:57:49;1.17;;;0.90;;
10410;SDS011;5251;52.112;8.606;2022-07-05T14:00:15;1.63;;;0.95;;
10410;SDS011;5251;52.112;8.606;2022-07-05T14:02:41;0.80;;;0.80;;
10410;SDS011;5251;52.112;8.606;2022-07-05T14:05:07;1.50;;;0.85;;
10410;SDS011;5251;52.112;8.606;2022-07-05T14:07:33;0.88;;;0.80;;
10410;SDS011;5251;52.112;8.606;2022-07-05T14:09:58;1.45;;;0.90;;
10410;SDS011;5251;52.112;8.606;2022-07-05T14:12:24;1.08;;;1.00;;
10410;SDS011;5251;52.112;8.606;2022-07-05T14:14:49;1.67;;;0.80;;
10410;SDS011;5251;52.112;8.606;2022-07-05T14:17:15;0.95;;;0.95;;
10410;SDS011;5251;52.112;8.606;2022-07-05T14:19:41;0.80;;;0.80;;
10410;SDS011;5251;52.112;8.606;2022-07-05T14:22:06;1.58;;;0.90;;
10410;SDS011;5251;52.112;8.606;2022-07-05T14:24:32;3.70;;;0.80;;
10410;SDS011;5251;52.112;8.606;2022-07-05T14:26:57;1.85;;;1.10;;
10410;SDS011;5251;52.112;8.606;2022-07-05T14:29:23;0.98;;;0.77;;
10410;SDS011;5251;52.112;8.606;2022-07-05T14:31:49;0.80;;;0.80;;
10410;SDS011;5251;52.112;8.606;2022-07-05T14:34:14;0.80;;;0.80;;
10410;SDS011;5251;52.112;8.606;2022-07-05T14:36:40;3.35;;;1.30;;
10410;SDS011;5251;52.112;8.606;2022-07-05T14:39:05;1.00;;;0.88;;
10410;SDS011;5251;52.112;8.606;2022-07-05T14:41:31;1.23;;;0.80;;
10410;SDS011;5251;52.112;8.606;2022-07-05T14:43:57;1.17;;;0.90;;
10410;SDS011;5251;52.112;8.606;2022-07-05T14:46:22;0.85;;;0.75;;
10410;SDS011;5251;52.112;8.606;2022-07-05T14:48:48;0.90;;;0.90;;
10410;SDS011;5251;52.112;8.606;2022-07-05T14:51:14;0.98;;;0.88;;
10410;SDS011;5251;52.112;8.606;2022-07-05T14:53:39;0.90;;;0.90;;
10410;SDS011;5251;52.112;8.606;2022-07-05T14:56:11;0.70;;;0.70;;
10410;SDS011;5251;52.112;8.606;2022-07-05T14:58:37;0.82;;;0.77;;
10410;SDS011;5251;52.112;8.606;2022-07-05T15:01:02;1.20;;;0.80;;
10410;SDS011;5251;52.112;8.606;2022-07-05T15:03:28;3.85;;;1.45;;
10410;SDS011;5251;52.112;8.606;2022-07-05T15:05:53;1.15;;;0.85;;
10410;SDS011;5251;52.112;8.606;2022-07-05T15:08:20;0.80;;;0.80;;
10410;SDS011;5251;52.112;8.606;2022-07-05T15:10:46;0.85;;;0.70;;
10410;SDS011;5251;52.112;8.606;2022-07-05T15:13:12;0.70;;;0.70;;
10410;SDS011;5251;52.112;8.606;2022-07-05T15:15:37;0.90;;;0.90;;
10410;SDS011;5251;52.112;8.606;2022-07-05T15:18:03;0.80;;;0.73;;
10410;SDS011;5251;52.112;8.606;2022-07-05T15:20:29;1.17;;;0.75;;
10410;SDS011;5251;52.112;8.606;2022-07-05T15:22:54;0.70;;;0.70;;
10410;SDS011;5251;52.112;8.606;2022-07-05T15:25:21;0.70;;;0.70;;
10410;SDS011;5251;52.112;8.606;2022-07-05T15:27:47;1.92;;;0.80;;
10410;SDS011;5251;52.112;8.606;2022-07-05T15:30:13;1.08;;;0.93;;
10410;SDS011;5251;52.112;8.606;2022-07-05T15:32:41;1.15;;;0.90;;
10410;SDS011;5251;52.112;8.606;2022-07-05T15:35:07;0.70;;;0.68;;
10410;SDS011;5251;52.112;8.606;2022-07-05T15:37:32;1.33;;;0.90;;